sensor_id;sensor_type;location;lat;lon;timestamp;pressure;altitude;pressure_sealevel;temperature;humidity
73105;BME280;61296;50.526;30.792;2022-08-01T00:00:18;99140.56;;;18.48;67.01
73105;BME280;61296;50.526;30.792;2022-08-01T00:15:37;99135.88;;;18.44;67.10
73105;BME280;61296;50.526;30.792;2022-08-01T00:30:57;99129.44;;;18.31;67.78
73105;BME280;61296;50.526;30.792;2022-08-01T00:46:16;99138.06;;;18.21;68.42
73105;BME280;61296;50.526;30.792;2022-08-01T01:01:35;99073.19;;;17.58;69.12
73105;BME280;61296;50.526;30.792;2022-08-01T01:16:57;99056.00;;;17.31;69.60
73105;BME280;61296;50.526;30.792;2022-08-01T01:32:22;99089.09;;;17.42;70.17
73105;BME280;61296;50.526;30.792;2022-08-01T01:47:45;99133.06;;;17.47;70.64
73105;BME280;61296;50.526;30.792;2022-08-01T02:03:05;99146.31;;;17.39;71.13
73105;BME280;61296;50.526;30.792;2022-08-01T02:18:26;99149.72;;;17.30;71.17
73105;BME280;61296;50.526;30.792;2022-08-01T02:33:52;99112.66;;;17.17;70.07
73105;BME280;61296;50.526;30.792;2022-08-01T02:49:14;99063.16;;;17.12;68.63
73105;BME280;61296;50.526;30.792;2022-08-01T03:04:35;99075.75;;;17.17;68.53
73105;BME280;61296;50.526;30.792;2022-08-01T03:19:57;99133.00;;;17.67;67.96
73105;BME280;61296;50.526;30.792;2022-08-01T03:35:18;99120.34;;;17.82;66.28
73105;BME280;61296;50.526;30.792;2022-08-01T03:50:41;99144.28;;;18.57;63.94
73105;BME280;61296;50.526;30.792;2022-08-01T04:06:06;99138.16;;;18.79;61.69
73105;BME280;61296;50.526;30.792;2022-08-01T04:21:28;99148.31;;;18.85;60.89
73105;BME280;61296;50.526;30.792;2022-08-01T04:36:52;99105.22;;;19.02;58.61
73105;BME280;61296;50.526;30.792;2022-08-01T04:52:11;99133.69;;;19.23;58.45
73105;BME280;61296;50.526;30.792;2022-08-01T05:07:32;99130.50;;;19.50;57.91
73105;BME280;61296;50.526;30.792;2022-08-01T05:22:51;99087.88;;;19.75;56.91
73105;BME280;61296;50.526;30.792;2022-08-01T05:38:10;99121.34;;;20.48;54.93
73105;BME280;61296;50.526;30.792;2022-08-01T05:53:30;99116.84;;;21.07;53.50
73105;BME280;61296;50.526;30.792;2022-08-01T06:08:49;99055.78;;;21.36;51.67
73105;BME280;61296;50.526;30.792;2022-08-01T06:24:09;99114.72;;;22.86;47.79
73105;BME280;61296;50.526;30.792;2022-08-01T06:39:28;99108.59;;;23.06;47.41
73105;BME280;61296;50.526;30.792;2022-08-01T06:54:48;99081.88;;;23.29;45.98
73105;BME280;61296;50.526;30.792;2022-08-01T07:10:07;99054.13;;;23.31;45.94
73105;BME280;61296;50.526;30.792;2022-08-01T07:25:27;99074.69;;;23.37;45.49
73105;BME280;61296;50.526;30.792;2022-08-01T07:40:46;99029.13;;;23.09;47.20
73105;BME280;61296;50.526;30.792;2022-08-01T07:56:06;98990.69;;;22.91;47.92
73105;BME280;61296;50.526;30.792;2022-08-01T08:11:25;99100.09;;;24.33;47.13
73105;BME280;61296;50.526;30.792;2022-08-01T08:26:46;99078.88;;;24.32;47.90
73105;BME280;61296;50.526;30.792;2022-08-01T08:42:06;99032.47;;;24.36;47.57
73105;BME280;61296;50.526;30.792;2022-08-01T08:57:26;98995.28;;;24.56;48.04
73105;BME280;61296;50.526;30.792;2022-08-01T09:13:12;99048.34;;;25.22;48.15
73105;BME280;61296;50.526;30.792;2022-08-01T09:28:32;99042.34;;;25.15;48.76
73105;BME280;61296;50.526;30.792;2022-08-01T09:43:51;99072.41;;;25.73;48.14
73105;BME280;61296;50.526;30.792;2022-08-01T09:59:11;99039.13;;;25.72;47.84
73105;BME280;61296;50.526;30.792;2022-08-01T10:14:31;99011.44;;;26.11;46.77
73105;BME280;61296;50.526;30.792;2022-08-01T10:29:58;99020.31;;;26.04;48.46
73105;BME280;61296;50.526;30.792;2022-08-01T10:45:23;99053.50;;;25.94;49.76
73105;BME280;61296;50.526;30.792;2022-08-01T11:00:45;99074.44;;;25.87;50.69
73105;BME280;61296;50.526;30.792;2022-08-01T11:16:26;99052.81;;;26.19;49.73
73105;BME280;61296;50.526;30.792;2022-08-01T11:31:45;98967.16;;;25.91;48.36
73105;BME280;61296;50.526;30.792;2022-08-01T11:47:06;99010.75;;;26.16;47.24
73105;BME280;61296;50.526;30.792;2022-08-01T12:02:32;98999.34;;;25.84;46.74
73105;BME280;61296;50.526;30.792;2022-08-01T12:18:03;99047.00;;;26.69;46.42
73105;BME280;61296;50.526;30.792;2022-08-01T12:33:23;98986.31;;;26.07;48.64
73105;BME280;61296;50.526;30.792;2022-08-01T12:48:43;98990.56;;;25.77;50.25
73105;BME280;61296;50.526;30.792;2022-08-01T13:04:03;98985.53;;;25.66;46.14
73105;BME280;61296;50.526;30.792;2022-08-01T13:19:42;99028.78;;;25.83;48.46
73105;BME280;61296;50.526;30.792;2022-08-01T13:35:05;99021.31;;;25.80;47.53
73105;BME280;61296;50.526;30.792;2022-08-01T13:50:26;99015.03;;;25.71;48.02
73105;BME280;61296;50.526;30.792;2022-08-01T14:05:45;98991.91;;;25.46;50.00
73105;BME280;61296;50.526;30.792;2022-08-01T14:21:05;99041.25;;;25.97;50.46
73105;BME280;61296;50.526;30.792;2022-08-01T14:36:25;99029.25;;;25.12;55.63
73105;BME280;61296;50.526;30.792;2022-08-01T14:51:44;98963.03;;;24.13;57.16
73105;BME280;61296;50.526;30.792;2022-08-01T15:07:04;99035.69;;;24.59;56.71
73105;BME280;61296;50.526;30.792;2022-08-01T15:22:25;98984.84;;;24.18;56.86
73105;BME280;61296;50.526;30.792;2022-08-01T15:37:45;99025.63;;;24.52;55.84
73105;BME280;61296;50.526;30.792;2022-08-01T15:53:04;98990.56;;;24.24;56.00
73105;BME280;61296;50.526;30.792;2022-08-01T16:08:25;98996.47;;;24.26;56.92
73105;BME280;61296;50.526;30.792;2022-08-01T16:23:45;99012.28;;;23.75;59.12
73105;BME280;61296;50.526;30.792;2022-08-01T16:39:04;99069.84;;;23.80;60.08
73105;BME280;61296;50.526;30.792;2022-08-01T16:54:25;99074.00;;;23.60;59.67
73105;BME280;61296;50.526;30.792;2022-08-01T17:09:44;98968.78;;;22.71;60.85
73105;BME280;61296;50.526;30.792;2022-08-01T17:25:04;99076.47;;;23.25;62.22
73105;BME280;61296;50.526;30.792;2022-08-01T17:40:24;99110.56;;;23.24;62.54
73105;BME280;61296;50.526;30.792;2022-08-01T17:55:44;99133.69;;;23.10;62.76
73105;BME280;61296;50.526;30.792;2022-08-01T18:11:03;99102.22;;;22.51;64.00
73105;BME280;61296;50.526;30.792;2022-08-01T18:26:23;99131.06;;;22.51;64.85
73105;BME280;61296;50.526;30.792;2022-08-01T18:41:42;99145.38;;;22.44;65.14
73105;BME280;61296;50.526;30.792;2022-08-01T18:57:02;99172.09;;;22.27;65.97
73105;BME280;61296;50.526;30.792;2022-08-01T19:12:21;99171.59;;;22.10;65.22
73105;BME280;61296;50.526;30.792;2022-08-01T19:27:50;99151.25;;;21.87;66.18
73105;BME280;61296;50.526;30.792;2022-08-01T19:43:11;99120.50;;;21.47;67.14
73105;BME280;61296;50.526;30.792;2022-08-01T19:58:37;99162.09;;;21.76;67.08
73105;BME280;61296;50.526;30.792;2022-08-01T20:13:57;99080.66;;;21.12;68.08
73105;BME280;61296;50.526;30.792;2022-08-01T20:29:19;99083.56;;;20.78;69.48
73105;BME280;61296;50.526;30.792;2022-08-01T20:44:41;99110.78;;;20.86;68.00
73105;BME280;61296;50.526;30.792;2022-08-01T21:00:03;99165.91;;;21.08;68.68
73105;BME280;61296;50.526;30.792;2022-08-01T21:15:28;99173.53;;;21.07;69.98
73105;BME280;61296;50.526;30.792;2022-08-01T21:30:49;99125.94;;;20.76;70.48
73105;BME280;61296;50.526;30.792;2022-08-01T21:46:11;99139.78;;;20.80;71.36
73105;BME280;61296;50.526;30.792;2022-08-01T22:01:37;99111.25;;;20.85;70.14
73105;BME280;61296;50.526;30.792;2022-08-01T22:16:58;99019.75;;;19.98;71.67
73105;BME280;61296;50.526;30.792;2022-08-01T22:32:18;99092.13;;;20.27;72.75
73105;BME280;61296;50.526;30.792;2022-08-01T23:03:28;99020.28;;;19.71;73.10
73105;BME280;61296;50.526;30.792;2022-08-01T23:18:48;99023.59;;;19.78;73.78
73105;BME280;61296;50.526;30.792;2022-08-01T23:34:07;99001.41;;;19.75;73.12
73105;BME280;61296;50.526;30.792;2022-08-01T23:49:26;99046.47;;;20.21;72.34
